Closes task #230. Measured PFlash NIAH compression at 16K-260K source contexts on 1× 24 GB / 3090 single-card. Result: PFlash works flawlessly up to 131K source. Compresses 131,068 tokens to 6,524 (5%) in 10.8s with NIAH key + answer both retained. Vanilla llama.cpp pp131072 takes ~257s per Luce's published numbers, so PFlash alone is ~24× faster at this context. End-to-end TTFT (PFlash + target prefill on 6.5K) would be ~12-13s vs ~257s = ~20×. Above 131K, drafter ephemeral forward-pass tensors (K_curr/V_curr/Q_last at full sequence length) exceed 24 GB. K-cache quantization (--pflash-k-type q8_0) doesn't help — the failing allocs are forward-pass not cache, confirmed by separate bench at 200K/260K with identical OOM at the same layer numbers. @weicj's PR #78 claim of 24K → 262K dual-GPU phase split is neither refuted nor reproduced. Their setup was 2× 22 GB Ti with target also loaded co-resident on one card; the "24K" was target+drafter combined. Our 131K is drafter-alone on 24 GB. Reproducing 262K specifically would require investigation of their drafter config (chunk_size, lookahead, BSA window) — drafter activation footprint at 200K+ is the binding constraint regardless of GPU count. Practical recommendation for 24 GB / 3090 single-card users: PFlash is shippable for source contexts ≤ 131K. The ~24× TTFT speedup is genuine and quality holds. Above 131K, fall back to vanilla llama.cpp prefill or wait for upstream drafter optimizations. Adds: - BENCHMARKS.md "PFlash long-context compression on 1× 3090" subsection with full per-context table + drafter ceiling explanation - results/lucebox-pflash-niah-20260504-150321/ (BF16 K cache run) - results/lucebox-pflash-niah-q8k-20260504-150600/ (q8_0 K cache run) This closes our active investigation of the Luce surface — three benches done (DFlash same-card 73.97 mean, K8V4 same-card 74.68 mean, PFlash compression ceiling 131K). Recommendation surface narrows to: PFlash at ≤131K is the one piece of Luce that beats vLLM dual.yml on TTFT for that workload class. Co-Authored-By: Claude Opus 4.7 (1M context) <noreply@anthropic.com>
19 KiB
19 KiB
| 1 | ts | phase | index | temp_c | fan_pct | power_w | power_limit_w | mem_used_mib | mem_total_mib | util_pct |
|---|---|---|---|---|---|---|---|---|---|---|
| 2 | 1777906480.048 | pflash_load | 0 | 48 | 0 | 28.86 | 230.00 | 1 | 24576 | 0 |
| 3 | 1777906480.048 | pflash_load | 1 | 53 | 0 | 22.93 | 230.00 | 1 | 24576 | 0 |
| 4 | 1777906481.099 | pflash_load | 0 | 52 | 0 | 62.34 | 230.00 | 1700 | 24576 | 0 |
| 5 | 1777906481.099 | pflash_load | 1 | 53 | 0 | 25.88 | 230.00 | 1 | 24576 | 0 |
| 6 | 1777906482.142 | pflash_load | 0 | 52 | 0 | 128.56 | 230.00 | 1700 | 24576 | 0 |
| 7 | 1777906482.142 | pflash_load | 1 | 53 | 0 | 26.76 | 230.00 | 1 | 24576 | 0 |
| 8 | 1777906483.184 | pflash_load | 0 | 52 | 0 | 127.68 | 230.00 | 1700 | 24576 | 0 |
| 9 | 1777906483.184 | pflash_load | 1 | 53 | 0 | 24.05 | 230.00 | 1 | 24576 | 0 |
| 10 | 1777906484.226 | pflash_load | 0 | 53 | 0 | 127.82 | 230.00 | 1700 | 24576 | 0 |
| 11 | 1777906484.226 | pflash_load | 1 | 53 | 0 | 23.36 | 230.00 | 1 | 24576 | 0 |
| 12 | 1777906485.268 | pflash_load | 0 | 53 | 0 | 128.01 | 230.00 | 1700 | 24576 | 0 |
| 13 | 1777906485.268 | pflash_load | 1 | 53 | 0 | 23.20 | 230.00 | 1 | 24576 | 0 |
| 14 | 1777906486.310 | pflash_load | 0 | 53 | 57 | 128.18 | 230.00 | 1700 | 24576 | 0 |
| 15 | 1777906486.310 | pflash_load | 1 | 53 | 0 | 23.31 | 230.00 | 1 | 24576 | 0 |
| 16 | 1777906487.352 | pflash_load | 0 | 53 | 51 | 129.74 | 230.00 | 1700 | 24576 | 0 |
| 17 | 1777906487.352 | pflash_load | 1 | 53 | 0 | 23.34 | 230.00 | 1 | 24576 | 0 |
| 18 | 1777906488.407 | pflash_load | 0 | 53 | 53 | 130.16 | 230.00 | 1700 | 24576 | 0 |
| 19 | 1777906488.407 | pflash_load | 1 | 52 | 0 | 23.22 | 230.00 | 1 | 24576 | 0 |
| 20 | 1777906489.454 | pflash_load | 0 | 53 | 55 | 129.28 | 230.00 | 1700 | 24576 | 0 |
| 21 | 1777906489.454 | pflash_load | 1 | 53 | 0 | 23.16 | 230.00 | 1 | 24576 | 0 |
| 22 | 1777906490.496 | pflash_load | 0 | 53 | 57 | 129.52 | 230.00 | 1700 | 24576 | 0 |
| 23 | 1777906490.496 | pflash_load | 1 | 53 | 0 | 23.53 | 230.00 | 1 | 24576 | 0 |
| 24 | 1777906491.539 | pflash_load | 0 | 53 | 57 | 129.64 | 230.00 | 1700 | 24576 | 0 |
| 25 | 1777906491.539 | pflash_load | 1 | 53 | 0 | 23.48 | 230.00 | 1 | 24576 | 0 |
| 26 | 1777906492.580 | pflash_load | 0 | 54 | 58 | 129.72 | 230.00 | 1700 | 24576 | 0 |
| 27 | 1777906492.580 | pflash_load | 1 | 52 | 0 | 23.42 | 230.00 | 1 | 24576 | 0 |
| 28 | 1777906493.622 | pflash_load | 0 | 54 | 58 | 129.79 | 230.00 | 1700 | 24576 | 0 |
| 29 | 1777906493.622 | pflash_load | 1 | 52 | 0 | 23.36 | 230.00 | 1 | 24576 | 0 |
| 30 | 1777906494.663 | pflash_load | 0 | 54 | 58 | 129.85 | 230.00 | 1700 | 24576 | 0 |
| 31 | 1777906494.663 | pflash_load | 1 | 52 | 0 | 23.27 | 230.00 | 1 | 24576 | 0 |
| 32 | 1777906495.706 | pflash_load | 0 | 54 | 58 | 129.95 | 230.00 | 1700 | 24576 | 0 |
| 33 | 1777906495.706 | pflash_load | 1 | 52 | 0 | 23.16 | 230.00 | 1 | 24576 | 0 |
| 34 | 1777906496.748 | pflash_load | 0 | 54 | 58 | 129.99 | 230.00 | 1700 | 24576 | 0 |
| 35 | 1777906496.748 | pflash_load | 1 | 52 | 0 | 23.13 | 230.00 | 1 | 24576 | 0 |
| 36 | 1777906497.791 | pflash_load | 0 | 54 | 59 | 129.97 | 230.00 | 1700 | 24576 | 0 |
| 37 | 1777906497.791 | pflash_load | 1 | 52 | 0 | 23.31 | 230.00 | 1 | 24576 | 0 |
| 38 | 1777906498.835 | pflash_load | 0 | 54 | 59 | 130.06 | 230.00 | 1700 | 24576 | 0 |
| 39 | 1777906498.835 | pflash_load | 1 | 52 | 0 | 23.47 | 230.00 | 1 | 24576 | 0 |
| 40 | 1777906499.877 | pflash_load | 0 | 54 | 59 | 130.10 | 230.00 | 1700 | 24576 | 0 |
| 41 | 1777906499.877 | pflash_load | 1 | 52 | 0 | 23.37 | 230.00 | 1 | 24576 | 0 |
| 42 | 1777906500.918 | pflash_load | 0 | 54 | 59 | 129.95 | 230.00 | 1 | 24576 | 0 |
| 43 | 1777906500.918 | pflash_load | 1 | 52 | 0 | 23.31 | 230.00 | 1 | 24576 | 0 |
| 44 | 1777906501.962 | pflash_load | 0 | 54 | 59 | 132.29 | 230.00 | 1 | 24576 | 0 |
| 45 | 1777906501.962 | pflash_load | 1 | 52 | 0 | 23.21 | 230.00 | 1 | 24576 | 0 |
| 46 | 1777906503.007 | pflash_load | 0 | 51 | 59 | 52.60 | 230.00 | 1 | 24576 | 0 |
| 47 | 1777906503.007 | pflash_load | 1 | 52 | 0 | 22.91 | 230.00 | 1 | 24576 | 0 |
| 48 | 1777906504.057 | pflash_load | 0 | 50 | 59 | 32.71 | 230.00 | 1 | 24576 | 0 |
| 49 | 1777906504.057 | pflash_load | 1 | 52 | 0 | 22.86 | 230.00 | 1 | 24576 | 0 |
| 50 | 1777906505.109 | pflash_load | 0 | 50 | 59 | 31.68 | 230.00 | 1 | 24576 | 0 |
| 51 | 1777906505.109 | pflash_load | 1 | 52 | 0 | 22.98 | 230.00 | 1 | 24576 | 0 |
| 52 | 1777906506.176 | pflash_load | 0 | 50 | 59 | 30.25 | 230.00 | 1 | 24576 | 0 |
| 53 | 1777906506.176 | pflash_load | 1 | 52 | 0 | 23.00 | 230.00 | 1 | 24576 | 0 |
| 54 | 1777906507.238 | pflash_load | 0 | 50 | 59 | 29.75 | 230.00 | 1 | 24576 | 0 |
| 55 | 1777906507.238 | pflash_load | 1 | 52 | 0 | 22.97 | 230.00 | 1 | 24576 | 0 |
| 56 | 1777906508.288 | pflash_load | 0 | 49 | 59 | 29.76 | 230.00 | 1 | 24576 | 0 |
| 57 | 1777906508.288 | pflash_load | 1 | 52 | 0 | 22.87 | 230.00 | 1 | 24576 | 0 |
| 58 | 1777906509.339 | pflash_load | 0 | 49 | 59 | 29.91 | 230.00 | 1 | 24576 | 0 |
| 59 | 1777906509.339 | pflash_load | 1 | 52 | 0 | 22.95 | 230.00 | 1 | 24576 | 0 |
| 60 | 1777906510.388 | pflash_load | 0 | 49 | 59 | 29.77 | 230.00 | 1 | 24576 | 0 |
| 61 | 1777906510.388 | pflash_load | 1 | 52 | 0 | 23.15 | 230.00 | 1 | 24576 | 0 |
| 62 | 1777906511.438 | pflash_load | 0 | 49 | 59 | 29.69 | 230.00 | 1 | 24576 | 0 |
| 63 | 1777906511.438 | pflash_load | 1 | 52 | 0 | 23.05 | 230.00 | 1 | 24576 | 0 |
| 64 | 1777906512.488 | pflash_load | 0 | 49 | 59 | 29.61 | 230.00 | 1 | 24576 | 0 |
| 65 | 1777906512.488 | pflash_load | 1 | 52 | 0 | 23.06 | 230.00 | 1 | 24576 | 0 |
| 66 | 1777906513.538 | pflash_load | 0 | 49 | 59 | 29.74 | 230.00 | 1 | 24576 | 0 |
| 67 | 1777906513.538 | pflash_load | 1 | 52 | 0 | 23.10 | 230.00 | 1 | 24576 | 0 |
| 68 | 1777906514.585 | pflash_load | 0 | 49 | 59 | 29.81 | 230.00 | 1 | 24576 | 0 |
| 69 | 1777906514.585 | pflash_load | 1 | 52 | 0 | 22.93 | 230.00 | 1 | 24576 | 0 |
| 70 | 1777906515.634 | pflash_load | 0 | 49 | 59 | 29.43 | 230.00 | 1 | 24576 | 0 |
| 71 | 1777906515.634 | pflash_load | 1 | 52 | 0 | 22.90 | 230.00 | 1 | 24576 | 0 |
| 72 | 1777906516.683 | pflash_load | 0 | 48 | 59 | 29.47 | 230.00 | 1 | 24576 | 0 |
| 73 | 1777906516.683 | pflash_load | 1 | 52 | 0 | 23.08 | 230.00 | 1 | 24576 | 0 |
| 74 | 1777906517.733 | pflash_load | 0 | 48 | 59 | 29.72 | 230.00 | 1 | 24576 | 0 |
| 75 | 1777906517.733 | pflash_load | 1 | 52 | 0 | 23.15 | 230.00 | 1 | 24576 | 0 |
| 76 | 1777906518.787 | pflash_load | 0 | 48 | 59 | 29.76 | 230.00 | 1 | 24576 | 0 |
| 77 | 1777906518.787 | pflash_load | 1 | 52 | 0 | 23.12 | 230.00 | 1 | 24576 | 0 |
| 78 | 1777906519.834 | pflash_load | 0 | 48 | 59 | 29.68 | 230.00 | 1 | 24576 | 0 |
| 79 | 1777906519.834 | pflash_load | 1 | 52 | 0 | 23.20 | 230.00 | 1 | 24576 | 0 |
| 80 | 1777906520.884 | pflash_load | 0 | 48 | 59 | 29.67 | 230.00 | 1 | 24576 | 0 |
| 81 | 1777906520.884 | pflash_load | 1 | 52 | 0 | 23.02 | 230.00 | 1 | 24576 | 0 |
| 82 | 1777906521.933 | pflash_load | 0 | 48 | 59 | 29.66 | 230.00 | 1 | 24576 | 0 |
| 83 | 1777906521.933 | pflash_load | 1 | 52 | 0 | 22.85 | 230.00 | 1 | 24576 | 0 |
| 84 | 1777906522.984 | pflash_load | 0 | 48 | 59 | 29.83 | 230.00 | 1 | 24576 | 0 |
| 85 | 1777906522.984 | pflash_load | 1 | 52 | 0 | 22.95 | 230.00 | 1 | 24576 | 0 |
| 86 | 1777906524.036 | pflash_load | 0 | 48 | 59 | 29.70 | 230.00 | 1 | 24576 | 0 |
| 87 | 1777906524.036 | pflash_load | 1 | 52 | 0 | 22.90 | 230.00 | 1 | 24576 | 0 |
| 88 | 1777906525.102 | pflash_load | 0 | 48 | 59 | 29.72 | 230.00 | 1 | 24576 | 0 |
| 89 | 1777906525.102 | pflash_load | 1 | 52 | 0 | 22.82 | 230.00 | 1 | 24576 | 0 |
| 90 | 1777906526.160 | pflash_load | 0 | 48 | 59 | 29.68 | 230.00 | 1 | 24576 | 0 |
| 91 | 1777906526.160 | pflash_load | 1 | 52 | 0 | 22.88 | 230.00 | 1 | 24576 | 0 |
| 92 | 1777906527.210 | pflash_load | 0 | 47 | 59 | 29.60 | 230.00 | 1 | 24576 | 0 |
| 93 | 1777906527.210 | pflash_load | 1 | 52 | 0 | 22.77 | 230.00 | 1 | 24576 | 0 |
| 94 | 1777906528.259 | pflash_load | 0 | 47 | 59 | 29.63 | 230.00 | 1 | 24576 | 0 |
| 95 | 1777906528.259 | pflash_load | 1 | 52 | 0 | 22.74 | 230.00 | 1 | 24576 | 0 |
| 96 | 1777906529.307 | pflash_load | 0 | 47 | 59 | 29.63 | 230.00 | 1 | 24576 | 0 |
| 97 | 1777906529.307 | pflash_load | 1 | 52 | 0 | 22.78 | 230.00 | 1 | 24576 | 0 |
| 98 | 1777906530.358 | pflash_load | 0 | 47 | 59 | 29.61 | 230.00 | 1 | 24576 | 0 |
| 99 | 1777906530.358 | pflash_load | 1 | 52 | 0 | 22.95 | 230.00 | 1 | 24576 | 0 |
| 100 | 1777906531.408 | pflash_load | 0 | 47 | 58 | 29.59 | 230.00 | 1 | 24576 | 0 |
| 101 | 1777906531.408 | pflash_load | 1 | 52 | 0 | 22.83 | 230.00 | 1 | 24576 | 0 |
| 102 | 1777906532.458 | pflash_load | 0 | 47 | 58 | 29.58 | 230.00 | 1 | 24576 | 0 |
| 103 | 1777906532.458 | pflash_load | 1 | 52 | 0 | 22.59 | 230.00 | 1 | 24576 | 0 |
| 104 | 1777906533.507 | pflash_load | 0 | 47 | 58 | 29.59 | 230.00 | 1 | 24576 | 0 |
| 105 | 1777906533.507 | pflash_load | 1 | 52 | 0 | 22.78 | 230.00 | 1 | 24576 | 0 |
| 106 | 1777906534.557 | pflash_load | 0 | 47 | 58 | 29.53 | 230.00 | 1 | 24576 | 0 |
| 107 | 1777906534.557 | pflash_load | 1 | 52 | 0 | 22.69 | 230.00 | 1 | 24576 | 0 |
| 108 | 1777906535.607 | pflash_load | 0 | 47 | 58 | 29.58 | 230.00 | 1 | 24576 | 0 |
| 109 | 1777906535.607 | pflash_load | 1 | 52 | 0 | 22.60 | 230.00 | 1 | 24576 | 0 |
| 110 | 1777906536.657 | pflash_load | 0 | 47 | 58 | 29.68 | 230.00 | 1 | 24576 | 0 |
| 111 | 1777906536.657 | pflash_load | 1 | 52 | 0 | 22.83 | 230.00 | 1 | 24576 | 0 |
| 112 | 1777906537.707 | pflash_load | 0 | 47 | 58 | 29.70 | 230.00 | 1 | 24576 | 0 |
| 113 | 1777906537.707 | pflash_load | 1 | 52 | 0 | 22.84 | 230.00 | 1 | 24576 | 0 |
| 114 | 1777906538.757 | pflash_load | 0 | 47 | 58 | 29.62 | 230.00 | 1 | 24576 | 0 |
| 115 | 1777906538.757 | pflash_load | 1 | 52 | 0 | 22.89 | 230.00 | 1 | 24576 | 0 |
| 116 | 1777906539.806 | pflash_load | 0 | 46 | 58 | 29.59 | 230.00 | 1 | 24576 | 0 |
| 117 | 1777906539.806 | pflash_load | 1 | 52 | 0 | 23.07 | 230.00 | 1 | 24576 | 0 |
| 118 | 1777906540.856 | pflash_load | 0 | 46 | 58 | 29.60 | 230.00 | 1 | 24576 | 0 |
| 119 | 1777906540.856 | pflash_load | 1 | 52 | 0 | 22.84 | 230.00 | 1 | 24576 | 0 |
| 120 | 1777906541.906 | pflash_load | 0 | 46 | 58 | 29.58 | 230.00 | 1 | 24576 | 0 |
| 121 | 1777906541.906 | pflash_load | 1 | 52 | 0 | 22.67 | 230.00 | 1 | 24576 | 0 |
| 122 | 1777906542.955 | pflash_load | 0 | 46 | 58 | 29.58 | 230.00 | 1 | 24576 | 0 |
| 123 | 1777906542.955 | pflash_load | 1 | 52 | 0 | 22.70 | 230.00 | 1 | 24576 | 0 |
| 124 | 1777906544.006 | pflash_load | 0 | 46 | 58 | 29.60 | 230.00 | 1 | 24576 | 0 |
| 125 | 1777906544.006 | pflash_load | 1 | 52 | 0 | 22.60 | 230.00 | 1 | 24576 | 0 |
| 126 | 1777906545.055 | pflash_load | 0 | 46 | 58 | 29.55 | 230.00 | 1 | 24576 | 0 |
| 127 | 1777906545.055 | pflash_load | 1 | 52 | 0 | 22.52 | 230.00 | 1 | 24576 | 0 |
| 128 | 1777906546.105 | pflash_load | 0 | 46 | 58 | 29.57 | 230.00 | 1 | 24576 | 0 |
| 129 | 1777906546.105 | pflash_load | 1 | 52 | 0 | 22.57 | 230.00 | 1 | 24576 | 0 |
| 130 | 1777906547.163 | pflash_load | 0 | 46 | 58 | 29.81 | 230.00 | 1 | 24576 | 0 |
| 131 | 1777906547.163 | pflash_load | 1 | 52 | 0 | 22.54 | 230.00 | 1 | 24576 | 0 |
| 132 | 1777906548.211 | pflash_load | 0 | 46 | 58 | 29.60 | 230.00 | 1 | 24576 | 0 |
| 133 | 1777906548.211 | pflash_load | 1 | 52 | 0 | 22.46 | 230.00 | 1 | 24576 | 0 |
| 134 | 1777906549.264 | pflash_load | 0 | 46 | 58 | 29.34 | 230.00 | 1 | 24576 | 0 |
| 135 | 1777906549.264 | pflash_load | 1 | 52 | 0 | 22.59 | 230.00 | 1 | 24576 | 0 |
| 136 | 1777906550.313 | pflash_load | 0 | 46 | 58 | 29.31 | 230.00 | 1 | 24576 | 0 |
| 137 | 1777906550.313 | pflash_load | 1 | 52 | 0 | 22.76 | 230.00 | 1 | 24576 | 0 |
| 138 | 1777906551.361 | pflash_load | 0 | 46 | 58 | 29.33 | 230.00 | 1 | 24576 | 0 |
| 139 | 1777906551.361 | pflash_load | 1 | 52 | 0 | 22.85 | 230.00 | 1 | 24576 | 0 |
| 140 | 1777906552.409 | pflash_load | 0 | 46 | 58 | 29.39 | 230.00 | 1 | 24576 | 0 |
| 141 | 1777906552.409 | pflash_load | 1 | 52 | 0 | 22.53 | 230.00 | 1 | 24576 | 0 |
| 142 | 1777906553.459 | pflash_load | 0 | 46 | 58 | 29.31 | 230.00 | 1 | 24576 | 0 |
| 143 | 1777906553.459 | pflash_load | 1 | 52 | 0 | 22.40 | 230.00 | 1 | 24576 | 0 |
| 144 | 1777906554.508 | pflash_load | 0 | 45 | 58 | 29.36 | 230.00 | 1 | 24576 | 0 |
| 145 | 1777906554.508 | pflash_load | 1 | 52 | 0 | 22.68 | 230.00 | 1 | 24576 | 0 |
| 146 | 1777906555.557 | pflash_load | 0 | 45 | 58 | 29.51 | 230.00 | 1 | 24576 | 0 |
| 147 | 1777906555.557 | pflash_load | 1 | 52 | 0 | 22.66 | 230.00 | 1 | 24576 | 0 |
| 148 | 1777906556.609 | pflash_load | 0 | 45 | 58 | 29.32 | 230.00 | 1 | 24576 | 0 |
| 149 | 1777906556.609 | pflash_load | 1 | 52 | 0 | 22.43 | 230.00 | 1 | 24576 | 0 |
| 150 | 1777906557.656 | pflash_load | 0 | 45 | 58 | 29.29 | 230.00 | 1 | 24576 | 0 |
| 151 | 1777906557.656 | pflash_load | 1 | 51 | 0 | 22.53 | 230.00 | 1 | 24576 | 0 |
| 152 | 1777906558.705 | pflash_load | 0 | 45 | 58 | 29.43 | 230.00 | 1 | 24576 | 0 |
| 153 | 1777906558.705 | pflash_load | 1 | 51 | 0 | 22.52 | 230.00 | 1 | 24576 | 0 |
| 154 | 1777906559.756 | pflash_load | 0 | 45 | 58 | 29.25 | 230.00 | 1 | 24576 | 0 |
| 155 | 1777906559.756 | pflash_load | 1 | 51 | 0 | 22.50 | 230.00 | 1 | 24576 | 0 |
| 156 | 1777906560.806 | pflash_load | 0 | 45 | 58 | 29.29 | 230.00 | 1 | 24576 | 0 |
| 157 | 1777906560.806 | pflash_load | 1 | 51 | 0 | 22.55 | 230.00 | 1 | 24576 | 0 |
| 158 | 1777906561.856 | pflash_load | 0 | 45 | 58 | 29.52 | 230.00 | 1 | 24576 | 0 |
| 159 | 1777906561.856 | pflash_load | 1 | 51 | 0 | 22.46 | 230.00 | 1 | 24576 | 0 |
| 160 | 1777906562.904 | pflash_load | 0 | 45 | 58 | 29.49 | 230.00 | 1 | 24576 | 0 |
| 161 | 1777906562.904 | pflash_load | 1 | 51 | 0 | 22.61 | 230.00 | 1 | 24576 | 0 |
| 162 | 1777906563.953 | pflash_load | 0 | 45 | 58 | 29.14 | 230.00 | 1 | 24576 | 0 |
| 163 | 1777906563.953 | pflash_load | 1 | 51 | 0 | 22.70 | 230.00 | 1 | 24576 | 0 |
| 164 | 1777906565.009 | pflash_load | 0 | 45 | 58 | 29.18 | 230.00 | 1 | 24576 | 0 |
| 165 | 1777906565.009 | pflash_load | 1 | 51 | 0 | 22.50 | 230.00 | 1 | 24576 | 0 |
| 166 | 1777906566.058 | pflash_load | 0 | 45 | 58 | 29.24 | 230.00 | 1 | 24576 | 0 |
| 167 | 1777906566.058 | pflash_load | 1 | 51 | 0 | 22.42 | 230.00 | 1 | 24576 | 0 |
| 168 | 1777906567.108 | pflash_load | 0 | 45 | 58 | 29.25 | 230.00 | 1 | 24576 | 0 |
| 169 | 1777906567.108 | pflash_load | 1 | 51 | 0 | 22.56 | 230.00 | 1 | 24576 | 0 |
| 170 | 1777906568.160 | pflash_load | 0 | 45 | 57 | 29.01 | 230.00 | 1 | 24576 | 0 |
| 171 | 1777906568.160 | pflash_load | 1 | 51 | 0 | 22.61 | 230.00 | 1 | 24576 | 0 |
| 172 | 1777906569.209 | pflash_load | 0 | 45 | 57 | 29.00 | 230.00 | 1 | 24576 | 0 |
| 173 | 1777906569.209 | pflash_load | 1 | 51 | 0 | 22.49 | 230.00 | 1 | 24576 | 0 |
| 174 | 1777906570.257 | pflash_load | 0 | 45 | 57 | 29.16 | 230.00 | 1 | 24576 | 0 |
| 175 | 1777906570.257 | pflash_load | 1 | 51 | 0 | 22.45 | 230.00 | 1 | 24576 | 0 |
| 176 | 1777906571.306 | pflash_load | 0 | 45 | 57 | 29.01 | 230.00 | 1 | 24576 | 0 |
| 177 | 1777906571.306 | pflash_load | 1 | 51 | 0 | 22.55 | 230.00 | 1 | 24576 | 0 |
| 178 | 1777906572.353 | pflash_load | 0 | 44 | 57 | 29.03 | 230.00 | 1 | 24576 | 0 |
| 179 | 1777906572.353 | pflash_load | 1 | 51 | 0 | 22.71 | 230.00 | 1 | 24576 | 0 |
| 180 | 1777906573.401 | pflash_load | 0 | 44 | 57 | 29.17 | 230.00 | 1 | 24576 | 0 |
| 181 | 1777906573.401 | pflash_load | 1 | 51 | 0 | 22.70 | 230.00 | 1 | 24576 | 0 |
| 182 | 1777906574.450 | pflash_load | 0 | 44 | 57 | 29.03 | 230.00 | 1 | 24576 | 0 |
| 183 | 1777906574.450 | pflash_load | 1 | 51 | 0 | 22.61 | 230.00 | 1 | 24576 | 0 |
| 184 | 1777906575.498 | pflash_load | 0 | 44 | 57 | 29.07 | 230.00 | 1 | 24576 | 0 |
| 185 | 1777906575.498 | pflash_load | 1 | 51 | 0 | 22.62 | 230.00 | 1 | 24576 | 0 |
| 186 | 1777906576.549 | pflash_load | 0 | 44 | 57 | 29.32 | 230.00 | 1 | 24576 | 0 |
| 187 | 1777906576.549 | pflash_load | 1 | 51 | 0 | 22.79 | 230.00 | 1 | 24576 | 0 |
| 188 | 1777906577.597 | pflash_load | 0 | 44 | 57 | 29.25 | 230.00 | 1 | 24576 | 0 |
| 189 | 1777906577.597 | pflash_load | 1 | 51 | 0 | 22.97 | 230.00 | 1 | 24576 | 0 |
| 190 | 1777906578.646 | pflash_load | 0 | 44 | 57 | 29.22 | 230.00 | 1 | 24576 | 0 |
| 191 | 1777906578.646 | pflash_load | 1 | 51 | 0 | 22.86 | 230.00 | 1 | 24576 | 0 |
| 192 | 1777906579.696 | pflash_load | 0 | 44 | 56 | 29.31 | 230.00 | 1 | 24576 | 0 |
| 193 | 1777906579.696 | pflash_load | 1 | 51 | 0 | 22.65 | 230.00 | 1 | 24576 | 0 |
| 194 | 1777906580.745 | pflash_load | 0 | 44 | 51 | 29.08 | 230.00 | 1 | 24576 | 0 |
| 195 | 1777906580.745 | pflash_load | 1 | 51 | 0 | 22.70 | 230.00 | 1 | 24576 | 0 |
| 196 | 1777906581.796 | pflash_load | 0 | 44 | 45 | 28.88 | 230.00 | 1 | 24576 | 0 |
| 197 | 1777906581.796 | pflash_load | 1 | 51 | 0 | 22.82 | 230.00 | 1 | 24576 | 0 |
| 198 | 1777906582.852 | pflash_load | 0 | 44 | 0 | 28.72 | 230.00 | 1 | 24576 | 0 |
| 199 | 1777906582.852 | pflash_load | 1 | 51 | 0 | 22.94 | 230.00 | 1 | 24576 | 0 |
| 200 | 1777906583.903 | pflash_load | 0 | 44 | 0 | 28.17 | 230.00 | 1 | 24576 | 0 |
| 201 | 1777906583.903 | pflash_load | 1 | 51 | 0 | 23.00 | 230.00 | 1 | 24576 | 0 |
| 202 | 1777906584.951 | pflash_load | 0 | 44 | 0 | 28.00 | 230.00 | 1 | 24576 | 0 |
| 203 | 1777906584.951 | pflash_load | 1 | 51 | 0 | 22.82 | 230.00 | 1 | 24576 | 0 |
| 204 | 1777906586.001 | pflash_load | 0 | 44 | 0 | 27.84 | 230.00 | 1 | 24576 | 0 |
| 205 | 1777906586.001 | pflash_load | 1 | 51 | 0 | 22.83 | 230.00 | 1 | 24576 | 0 |
| 206 | 1777906587.050 | pflash_load | 0 | 44 | 0 | 27.80 | 230.00 | 1 | 24576 | 0 |
| 207 | 1777906587.050 | pflash_load | 1 | 51 | 0 | 22.98 | 230.00 | 1 | 24576 | 0 |
| 208 | 1777906588.100 | pflash_load | 0 | 44 | 0 | 27.92 | 230.00 | 1 | 24576 | 0 |
| 209 | 1777906588.100 | pflash_load | 1 | 51 | 0 | 22.77 | 230.00 | 1 | 24576 | 0 |
| 210 | 1777906589.148 | pflash_load | 0 | 44 | 0 | 27.83 | 230.00 | 1 | 24576 | 0 |
| 211 | 1777906589.148 | pflash_load | 1 | 51 | 0 | 22.63 | 230.00 | 1 | 24576 | 0 |
| 212 | 1777906590.196 | pflash_load | 0 | 44 | 0 | 27.96 | 230.00 | 1 | 24576 | 0 |
| 213 | 1777906590.196 | pflash_load | 1 | 51 | 0 | 22.70 | 230.00 | 1 | 24576 | 0 |
| 214 | 1777906591.245 | pflash_load | 0 | 44 | 0 | 28.11 | 230.00 | 1 | 24576 | 0 |
| 215 | 1777906591.245 | pflash_load | 1 | 51 | 0 | 22.63 | 230.00 | 1 | 24576 | 0 |
| 216 | 1777906592.296 | pflash_load | 0 | 44 | 0 | 27.91 | 230.00 | 1 | 24576 | 0 |
| 217 | 1777906592.296 | pflash_load | 1 | 51 | 0 | 22.74 | 230.00 | 1 | 24576 | 0 |
| 218 | 1777906593.345 | pflash_load | 0 | 44 | 0 | 27.89 | 230.00 | 1 | 24576 | 0 |
| 219 | 1777906593.345 | pflash_load | 1 | 51 | 0 | 22.82 | 230.00 | 1 | 24576 | 0 |
| 220 | 1777906594.395 | pflash_load | 0 | 44 | 0 | 28.09 | 230.00 | 1 | 24576 | 0 |
| 221 | 1777906594.395 | pflash_load | 1 | 51 | 0 | 22.88 | 230.00 | 1 | 24576 | 0 |
| 222 | 1777906595.445 | pflash_load | 0 | 44 | 0 | 27.99 | 230.00 | 1 | 24576 | 0 |
| 223 | 1777906595.445 | pflash_load | 1 | 51 | 0 | 22.94 | 230.00 | 1 | 24576 | 0 |
| 224 | 1777906596.495 | pflash_load | 0 | 44 | 0 | 27.99 | 230.00 | 1 | 24576 | 0 |
| 225 | 1777906596.495 | pflash_load | 1 | 51 | 0 | 22.82 | 230.00 | 1 | 24576 | 0 |
| 226 | 1777906597.545 | pflash_load | 0 | 45 | 0 | 28.17 | 230.00 | 1 | 24576 | 0 |
| 227 | 1777906597.545 | pflash_load | 1 | 51 | 0 | 22.75 | 230.00 | 1 | 24576 | 0 |
| 228 | 1777906598.594 | pflash_load | 0 | 45 | 0 | 27.97 | 230.00 | 1 | 24576 | 0 |
| 229 | 1777906598.594 | pflash_load | 1 | 51 | 0 | 22.75 | 230.00 | 1 | 24576 | 0 |
| 230 | 1777906599.642 | pflash_load | 0 | 45 | 0 | 27.94 | 230.00 | 1 | 24576 | 0 |
| 231 | 1777906599.642 | pflash_load | 1 | 51 | 0 | 22.60 | 230.00 | 1 | 24576 | 0 |
| 232 | 1777906600.695 | pflash_load | 0 | 45 | 0 | 28.17 | 230.00 | 1 | 24576 | 0 |
| 233 | 1777906600.695 | pflash_load | 1 | 51 | 0 | 22.45 | 230.00 | 1 | 24576 | 0 |
| 234 | 1777906601.747 | pflash_load | 0 | 45 | 0 | 28.09 | 230.00 | 1 | 24576 | 0 |
| 235 | 1777906601.747 | pflash_load | 1 | 51 | 0 | 22.55 | 230.00 | 1 | 24576 | 0 |
| 236 | 1777906602.795 | pflash_load | 0 | 45 | 0 | 28.17 | 230.00 | 1 | 24576 | 0 |
| 237 | 1777906602.795 | pflash_load | 1 | 51 | 0 | 22.50 | 230.00 | 1 | 24576 | 0 |
| 238 | 1777906603.845 | pflash_load | 0 | 45 | 0 | 28.27 | 230.00 | 1 | 24576 | 0 |
| 239 | 1777906603.845 | pflash_load | 1 | 51 | 0 | 22.42 | 230.00 | 1 | 24576 | 0 |
| 240 | 1777906604.893 | pflash_load | 0 | 45 | 0 | 28.04 | 230.00 | 1 | 24576 | 0 |
| 241 | 1777906604.893 | pflash_load | 1 | 51 | 0 | 22.60 | 230.00 | 1 | 24576 | 0 |
| 242 | 1777906605.940 | pflash_load | 0 | 45 | 0 | 28.06 | 230.00 | 1 | 24576 | 0 |
| 243 | 1777906605.940 | pflash_load | 1 | 51 | 0 | 22.83 | 230.00 | 1 | 24576 | 0 |
| 244 | 1777906606.989 | pflash_load | 0 | 45 | 0 | 28.08 | 230.00 | 1 | 24576 | 0 |
| 245 | 1777906606.989 | pflash_load | 1 | 51 | 0 | 22.83 | 230.00 | 1 | 24576 | 0 |
| 246 | 1777906608.038 | pflash_load | 0 | 45 | 0 | 28.27 | 230.00 | 1 | 24576 | 0 |
| 247 | 1777906608.038 | pflash_load | 1 | 51 | 0 | 22.70 | 230.00 | 1 | 24576 | 0 |
| 248 | 1777906609.086 | pflash_load | 0 | 45 | 0 | 28.03 | 230.00 | 1 | 24576 | 0 |
| 249 | 1777906609.086 | pflash_load | 1 | 51 | 0 | 22.66 | 230.00 | 1 | 24576 | 0 |
| 250 | 1777906610.136 | pflash_load | 0 | 45 | 0 | 27.99 | 230.00 | 1 | 24576 | 0 |
| 251 | 1777906610.136 | pflash_load | 1 | 51 | 0 | 22.78 | 230.00 | 1 | 24576 | 0 |
| 252 | 1777906611.185 | pflash_load | 0 | 45 | 0 | 28.31 | 230.00 | 1 | 24576 | 0 |
| 253 | 1777906611.185 | pflash_load | 1 | 51 | 0 | 22.81 | 230.00 | 1 | 24576 | 0 |
| 254 | 1777906612.234 | pflash_load | 0 | 45 | 0 | 28.25 | 230.00 | 1 | 24576 | 0 |
| 255 | 1777906612.234 | pflash_load | 1 | 51 | 0 | 22.60 | 230.00 | 1 | 24576 | 0 |
| 256 | 1777906613.284 | pflash_load | 0 | 45 | 0 | 28.25 | 230.00 | 1 | 24576 | 0 |
| 257 | 1777906613.284 | pflash_load | 1 | 51 | 0 | 22.57 | 230.00 | 1 | 24576 | 0 |
| 258 | 1777906614.332 | pflash_load | 0 | 45 | 0 | 28.37 | 230.00 | 1 | 24576 | 0 |
| 259 | 1777906614.332 | pflash_load | 1 | 51 | 0 | 22.59 | 230.00 | 1 | 24576 | 0 |
| 260 | 1777906615.383 | pflash_load | 0 | 45 | 0 | 28.17 | 230.00 | 1 | 24576 | 0 |
| 261 | 1777906615.383 | pflash_load | 1 | 51 | 0 | 22.78 | 230.00 | 1 | 24576 | 0 |
| 262 | 1777906616.432 | pflash_load | 0 | 45 | 0 | 28.17 | 230.00 | 1 | 24576 | 0 |
| 263 | 1777906616.432 | pflash_load | 1 | 51 | 0 | 22.84 | 230.00 | 1 | 24576 | 0 |
| 264 | 1777906617.485 | pflash_load | 0 | 45 | 0 | 28.29 | 230.00 | 1 | 24576 | 0 |
| 265 | 1777906617.485 | pflash_load | 1 | 51 | 0 | 22.82 | 230.00 | 1 | 24576 | 0 |
| 266 | 1777906618.544 | pflash_load | 0 | 45 | 0 | 28.08 | 230.00 | 1 | 24576 | 0 |
| 267 | 1777906618.544 | pflash_load | 1 | 51 | 0 | 22.84 | 230.00 | 1 | 24576 | 0 |
| 268 | 1777906619.594 | pflash_load | 0 | 45 | 0 | 28.10 | 230.00 | 1 | 24576 | 0 |
| 269 | 1777906619.594 | pflash_load | 1 | 51 | 0 | 22.64 | 230.00 | 1 | 24576 | 0 |
| 270 | 1777906620.644 | pflash_load | 0 | 45 | 0 | 28.29 | 230.00 | 1 | 24576 | 0 |
| 271 | 1777906620.644 | pflash_load | 1 | 51 | 0 | 22.60 | 230.00 | 1 | 24576 | 0 |
| 272 | 1777906621.692 | pflash_load | 0 | 45 | 0 | 28.11 | 230.00 | 1 | 24576 | 0 |
| 273 | 1777906621.692 | pflash_load | 1 | 51 | 0 | 22.68 | 230.00 | 1 | 24576 | 0 |
| 274 | 1777906622.741 | pflash_load | 0 | 45 | 0 | 28.04 | 230.00 | 1 | 24576 | 0 |
| 275 | 1777906622.741 | pflash_load | 1 | 51 | 0 | 22.53 | 230.00 | 1 | 24576 | 0 |
| 276 | 1777906623.789 | pflash_load | 0 | 45 | 0 | 28.18 | 230.00 | 1 | 24576 | 0 |
| 277 | 1777906623.789 | pflash_load | 1 | 51 | 0 | 22.50 | 230.00 | 1 | 24576 | 0 |
| 278 | 1777906624.837 | pflash_load | 0 | 45 | 0 | 28.07 | 230.00 | 1 | 24576 | 0 |
| 279 | 1777906624.837 | pflash_load | 1 | 51 | 0 | 22.60 | 230.00 | 1 | 24576 | 0 |
| 280 | 1777906625.886 | pflash_load | 0 | 45 | 0 | 28.17 | 230.00 | 1 | 24576 | 0 |
| 281 | 1777906625.886 | pflash_load | 1 | 51 | 0 | 22.63 | 230.00 | 1 | 24576 | 0 |
| 282 | 1777906626.935 | pflash_load | 0 | 45 | 0 | 28.36 | 230.00 | 1 | 24576 | 0 |
| 283 | 1777906626.935 | pflash_load | 1 | 51 | 0 | 22.84 | 230.00 | 1 | 24576 | 0 |
| 284 | 1777906627.982 | pflash_load | 0 | 45 | 0 | 28.24 | 230.00 | 1 | 24576 | 0 |
| 285 | 1777906627.982 | pflash_load | 1 | 51 | 0 | 22.97 | 230.00 | 1 | 24576 | 0 |
| 286 | 1777906629.030 | pflash_load | 0 | 46 | 0 | 28.31 | 230.00 | 1 | 24576 | 0 |
| 287 | 1777906629.030 | pflash_load | 1 | 51 | 0 | 22.74 | 230.00 | 1 | 24576 | 0 |
| 288 | 1777906630.080 | pflash_load | 0 | 46 | 0 | 28.18 | 230.00 | 1 | 24576 | 0 |
| 289 | 1777906630.080 | pflash_load | 1 | 51 | 0 | 22.61 | 230.00 | 1 | 24576 | 0 |
| 290 | 1777906631.129 | pflash_load | 0 | 46 | 0 | 28.22 | 230.00 | 1 | 24576 | 0 |
| 291 | 1777906631.129 | pflash_load | 1 | 51 | 0 | 22.70 | 230.00 | 1 | 24576 | 0 |
| 292 | 1777906632.178 | pflash_load | 0 | 46 | 0 | 28.39 | 230.00 | 1 | 24576 | 0 |
| 293 | 1777906632.178 | pflash_load | 1 | 51 | 0 | 22.55 | 230.00 | 1 | 24576 | 0 |
| 294 | 1777906633.228 | pflash_load | 0 | 46 | 0 | 28.26 | 230.00 | 1 | 24576 | 0 |
| 295 | 1777906633.228 | pflash_load | 1 | 51 | 0 | 22.63 | 230.00 | 1 | 24576 | 0 |
| 296 | 1777906634.278 | pflash_load | 0 | 46 | 0 | 28.21 | 230.00 | 1 | 24576 | 0 |
| 297 | 1777906634.278 | pflash_load | 1 | 51 | 0 | 22.88 | 230.00 | 1 | 24576 | 0 |
| 298 | 1777906635.327 | pflash_load | 0 | 46 | 0 | 28.24 | 230.00 | 1 | 24576 | 0 |
| 299 | 1777906635.327 | pflash_load | 1 | 51 | 0 | 22.74 | 230.00 | 1 | 24576 | 0 |
| 300 | 1777906636.385 | pflash_load | 0 | 46 | 0 | 28.09 | 230.00 | 1 | 24576 | 0 |
| 301 | 1777906636.385 | pflash_load | 1 | 51 | 0 | 22.86 | 230.00 | 1 | 24576 | 0 |
| 302 | 1777906637.433 | pflash_load | 0 | 46 | 0 | 28.15 | 230.00 | 1 | 24576 | 0 |
| 303 | 1777906637.433 | pflash_load | 1 | 51 | 0 | 22.83 | 230.00 | 1 | 24576 | 0 |
| 304 | 1777906638.483 | pflash_load | 0 | 46 | 0 | 28.27 | 230.00 | 1 | 24576 | 0 |
| 305 | 1777906638.483 | pflash_load | 1 | 51 | 0 | 22.84 | 230.00 | 1 | 24576 | 0 |
| 306 | 1777906639.532 | pflash_load | 0 | 46 | 0 | 28.09 | 230.00 | 1 | 24576 | 0 |
| 307 | 1777906639.532 | pflash_load | 1 | 51 | 0 | 22.92 | 230.00 | 1 | 24576 | 0 |
| 308 | 1777906640.580 | pflash_load | 0 | 46 | 0 | 28.14 | 230.00 | 1 | 24576 | 0 |
| 309 | 1777906640.580 | pflash_load | 1 | 51 | 0 | 22.84 | 230.00 | 1 | 24576 | 0 |
| 310 | 1777906641.630 | pflash_load | 0 | 46 | 0 | 28.45 | 230.00 | 1 | 24576 | 0 |
| 311 | 1777906641.630 | pflash_load | 1 | 51 | 0 | 22.86 | 230.00 | 1 | 24576 | 0 |
| 312 | 1777906642.679 | pflash_load | 0 | 46 | 0 | 28.33 | 230.00 | 1 | 24576 | 0 |
| 313 | 1777906642.679 | pflash_load | 1 | 51 | 0 | 23.08 | 230.00 | 1 | 24576 | 0 |
| 314 | 1777906643.727 | pflash_load | 0 | 46 | 0 | 28.27 | 230.00 | 1 | 24576 | 0 |
| 315 | 1777906643.727 | pflash_load | 1 | 51 | 0 | 22.96 | 230.00 | 1 | 24576 | 0 |
| 316 | 1777906644.777 | pflash_load | 0 | 46 | 0 | 28.46 | 230.00 | 1 | 24576 | 0 |
| 317 | 1777906644.777 | pflash_load | 1 | 51 | 0 | 22.77 | 230.00 | 1 | 24576 | 0 |
| 318 | 1777906645.824 | pflash_load | 0 | 46 | 0 | 28.40 | 230.00 | 1 | 24576 | 0 |
| 319 | 1777906645.824 | pflash_load | 1 | 51 | 0 | 22.96 | 230.00 | 1 | 24576 | 0 |
| 320 | 1777906646.873 | pflash_load | 0 | 46 | 0 | 28.47 | 230.00 | 1 | 24576 | 0 |
| 321 | 1777906646.873 | pflash_load | 1 | 51 | 0 | 22.97 | 230.00 | 1 | 24576 | 0 |
| 322 | 1777906647.922 | pflash_load | 0 | 46 | 0 | 28.35 | 230.00 | 1 | 24576 | 0 |
| 323 | 1777906647.922 | pflash_load | 1 | 51 | 0 | 22.92 | 230.00 | 1 | 24576 | 0 |
| 324 | 1777906648.970 | pflash_load | 0 | 46 | 0 | 28.48 | 230.00 | 1 | 24576 | 0 |
| 325 | 1777906648.970 | pflash_load | 1 | 51 | 0 | 22.96 | 230.00 | 1 | 24576 | 0 |
| 326 | 1777906650.020 | pflash_load | 0 | 46 | 0 | 28.33 | 230.00 | 1 | 24576 | 0 |
| 327 | 1777906650.020 | pflash_load | 1 | 51 | 0 | 22.71 | 230.00 | 1 | 24576 | 0 |
| 328 | 1777906651.068 | pflash_load | 0 | 46 | 0 | 28.42 | 230.00 | 1 | 24576 | 0 |
| 329 | 1777906651.068 | pflash_load | 1 | 51 | 0 | 22.62 | 230.00 | 1 | 24576 | 0 |
| 330 | 1777906652.116 | pflash_load | 0 | 46 | 0 | 28.54 | 230.00 | 1 | 24576 | 0 |
| 331 | 1777906652.116 | pflash_load | 1 | 51 | 0 | 22.77 | 230.00 | 1 | 24576 | 0 |
| 332 | 1777906653.167 | pflash_load | 0 | 46 | 0 | 28.36 | 230.00 | 1 | 24576 | 0 |
| 333 | 1777906653.167 | pflash_load | 1 | 51 | 0 | 23.03 | 230.00 | 1 | 24576 | 0 |
| 334 | 1777906654.222 | pflash_load | 0 | 46 | 0 | 28.37 | 230.00 | 1 | 24576 | 0 |
| 335 | 1777906654.222 | pflash_load | 1 | 51 | 0 | 23.16 | 230.00 | 1 | 24576 | 0 |
| 336 | 1777906655.273 | pflash_load | 0 | 46 | 0 | 28.48 | 230.00 | 1 | 24576 | 0 |
| 337 | 1777906655.273 | pflash_load | 1 | 51 | 0 | 22.95 | 230.00 | 1 | 24576 | 0 |
| 338 | 1777906656.323 | pflash_load | 0 | 46 | 0 | 28.35 | 230.00 | 1 | 24576 | 0 |
| 339 | 1777906656.323 | pflash_load | 1 | 51 | 0 | 22.90 | 230.00 | 1 | 24576 | 0 |
| 340 | 1777906657.372 | pflash_load | 0 | 46 | 0 | 28.40 | 230.00 | 1 | 24576 | 0 |
| 341 | 1777906657.372 | pflash_load | 1 | 51 | 0 | 22.75 | 230.00 | 1 | 24576 | 0 |
| 342 | 1777906658.422 | pflash_load | 0 | 46 | 0 | 28.56 | 230.00 | 1 | 24576 | 0 |
| 343 | 1777906658.422 | pflash_load | 1 | 51 | 0 | 22.79 | 230.00 | 1 | 24576 | 0 |
| 344 | 1777906659.471 | pflash_load | 0 | 46 | 0 | 28.40 | 230.00 | 1 | 24576 | 0 |
| 345 | 1777906659.471 | pflash_load | 1 | 51 | 0 | 22.91 | 230.00 | 1 | 24576 | 0 |